This is the latest recevied weather packets stored in our database for station/object DL6MAA-11. If no packets are shown the sender has not sent any weather packets the latest 10 day(s).
| Time | Temp. | Humidity | Pressure | Rain* | Wind** | Luminosity | Snow |
|---|---|---|---|---|---|---|---|
| 1777292547 | 18.89° C | 38% | 1017.6 hPa | 0 mm | - | 552 W/m² | - |
| 1777292248 | 18.89° C | 37% | 1017.6 hPa | 0 mm | - | 557 W/m² | - |
| 1777291947 | 18.33° C | 36% | 1017.4 hPa | 0 mm | - | 547 W/m² | - |
| 1777291655 | 18.89° C | 35% | 1017.4 hPa | 0 mm | - | 552 W/m² | - |
| 1777291340 | 18.89° C | 37% | 1017.4 hPa | 0 mm | - | 559 W/m² | - |
| 1777291045 | 18.89° C | 37% | 1017.5 hPa | 0 mm | - | 568 W/m² | - |
| 1777290459 | 18.89° C | 38% | 1017.5 hPa | 0 mm | - | 606 W/m² | - |
| 1777290161 | 18.89° C | 41% | 1017.8 hPa | 0 mm | - | 617 W/m² | - |
| 1777289841 | 18.33° C | 40% | 1017.8 hPa | 0 mm | - | 603 W/m² | - |
| 1777289548 | 17.78° C | 39% | 1017.8 hPa | 0 mm | - | 613 W/m² | - |
| 1777289251 | 17.78° C | 39% | 1018.1 hPa | 0 mm | - | 371 W/m² | - |
| 1777288953 | 17.78° C | 40% | 1018.1 hPa | 0 mm | - | 612 W/m² | - |
| 1777288642 | 17.78° C | 40% | 1018.1 hPa | 0 mm | - | 309 W/m² | - |
| 1777288348 | 17.22° C | 42% | 1017.8 hPa | 0 mm | - | 592 W/m² | - |
| 1777288059 | 17.78° C | 39% | 1017.8 hPa | 0 mm | - | 179 W/m² | - |
| 1777287748 | 17.78° C | 40% | 1017.8 hPa | 0 mm | - | 308 W/m² | - |
| 1777287453 | 18.33° C | 41% | 1018 hPa | 0 mm | - | 262 W/m² | - |
| 1777286848 | 17.78° C | 43% | 1018 hPa | 0 mm | - | 622 W/m² | - |
| 1777286557 | 17.78° C | 38% | 1018.1 hPa | 0 mm | - | 399 W/m² | - |
| 1777286245 | 17.78° C | 40% | 1018.1 hPa | 0 mm | - | 599 W/m² | - |
| 1777285946 | 17.78° C | 44% | 1018.1 hPa | 0 mm | - | 592 W/m² | - |
| 1777285655 | 17.22° C | 41% | 1018.2 hPa | 0 mm | - | 468 W/m² | - |
| 1777285361 | 17.78° C | 40% | 1018.2 hPa | 0 mm | - | 621 W/m² | - |
| 1777285043 | 17.78° C | 40% | 1018.2 hPa | 0 mm | - | 612 W/m² | - |
| 1777284750 | 17.78° C | 41% | 1018.3 hPa | 0 mm | - | 594 W/m² | - |
* Rain since midnight (hover to see other rain measurements)
** Current wind speed in m/s (hover to see current wind gust speed)